createdAt,value
2018-08-09T00:01:54.712Z,2.60
2018-08-09T00:04:22.920Z,3.10
2018-08-09T00:06:51.136Z,4.47
2018-08-09T00:09:19.352Z,3.20
2018-08-09T00:11:47.556Z,2.60
2018-08-09T00:14:15.844Z,2.43
2018-08-09T00:16:44.053Z,2.87
2018-08-09T00:19:12.272Z,2.87
2018-08-09T00:21:40.548Z,2.87
2018-08-09T00:24:08.808Z,3.00
2018-08-09T00:26:37.008Z,3.07
2018-08-09T00:29:05.253Z,2.40
2018-08-09T00:31:33.461Z,2.47
2018-08-09T00:34:01.688Z,2.30
2018-08-09T00:36:29.916Z,2.20
2018-08-09T00:38:58.315Z,2.30
2018-08-09T00:41:26.534Z,2.27
2018-08-09T00:43:54.733Z,2.20
2018-08-09T00:46:22.980Z,1.90
2018-08-09T00:48:51.183Z,2.20
2018-08-09T00:51:19.364Z,2.60
2018-08-09T00:53:47.580Z,2.77
2018-08-09T00:56:15.785Z,2.57
2018-08-09T00:58:44.053Z,2.20
2018-08-09T01:01:12.268Z,2.77
2018-08-09T01:03:40.536Z,2.50
2018-08-09T01:06:08.760Z,1.87
2018-08-09T01:08:37.013Z,2.43
2018-08-09T01:11:05.232Z,2.60
2018-08-09T01:13:33.436Z,2.43
2018-08-09T01:16:01.644Z,2.57
2018-08-09T01:18:29.945Z,2.23
2018-08-09T01:20:58.336Z,2.27
2018-08-09T01:23:26.564Z,2.30
2018-08-09T01:25:54.765Z,2.37
2018-08-09T01:28:23.020Z,2.03
2018-08-09T01:30:51.237Z,2.03
2018-08-09T01:33:19.449Z,2.37
2018-08-09T01:35:47.661Z,2.13
2018-08-09T01:38:15.969Z,2.57
2018-08-09T01:40:44.204Z,2.43
2018-08-09T01:43:23.934Z,2.57
2018-08-09T01:45:52.172Z,2.40
2018-08-09T01:48:20.423Z,2.70
2018-08-09T01:50:48.640Z,2.57
2018-08-09T01:53:16.888Z,2.57
2018-08-09T01:55:45.112Z,2.63
2018-08-09T01:58:13.330Z,2.40
2018-08-09T02:00:41.532Z,2.73
2018-08-09T02:03:09.792Z,2.57
2018-08-09T02:05:38.048Z,2.70
2018-08-09T02:08:06.300Z,2.93
2018-08-09T02:10:34.519Z,2.47
2018-08-09T02:13:02.737Z,2.60
2018-08-09T02:15:30.968Z,2.60
2018-08-09T02:17:59.196Z,2.37
2018-08-09T02:20:27.448Z,2.63
2018-08-09T02:22:55.671Z,2.70
2018-08-09T02:25:23.873Z,2.70
2018-08-09T02:27:52.099Z,2.80
2018-08-09T02:30:20.408Z,2.77
2018-08-09T02:32:48.653Z,2.53
2018-08-09T02:35:16.892Z,2.87
2018-08-09T02:37:45.133Z,2.43
2018-08-09T02:40:13.327Z,3.03
2018-08-09T02:42:41.525Z,2.37
2018-08-09T02:45:09.769Z,2.67
2018-08-09T02:47:38.063Z,1.97
2018-08-09T02:50:06.428Z,2.87
2018-08-09T02:52:34.649Z,2.60
2018-08-09T02:55:02.917Z,2.60
2018-08-09T02:57:31.136Z,2.93
2018-08-09T02:59:59.353Z,2.80
2018-08-09T03:02:27.573Z,2.93
2018-08-09T03:04:55.934Z,3.27
2018-08-09T03:07:24.157Z,2.90
2018-08-09T03:09:52.400Z,2.77
2018-08-09T03:12:20.613Z,2.87
2018-08-09T03:14:48.848Z,3.23
2018-08-09T03:17:17.099Z,3.10
2018-08-09T03:19:45.312Z,3.13
2018-08-09T03:22:13.528Z,3.00
2018-08-09T03:24:41.733Z,2.70
2018-08-09T03:27:10.481Z,2.93
2018-08-09T03:29:38.816Z,3.40
2018-08-09T03:32:07.143Z,3.10
2018-08-09T03:34:35.428Z,2.60
2018-08-09T03:37:03.684Z,2.80
2018-08-09T03:39:31.916Z,2.77
2018-08-09T03:42:00.104Z,2.87
2018-08-09T03:44:28.433Z,2.60
2018-08-09T03:46:56.628Z,2.43
2018-08-09T03:49:25.073Z,2.80
2018-08-09T03:51:53.329Z,2.53
2018-08-09T03:54:21.560Z,2.93
2018-08-09T03:56:49.764Z,2.87
2018-08-09T03:59:17.991Z,3.60
2018-08-09T04:01:46.303Z,3.30
2018-08-09T04:04:14.540Z,3.17
2018-08-09T04:06:42.741Z,3.03
2018-08-09T04:09:11.895Z,3.07
2018-08-09T04:11:40.530Z,3.63
2018-08-09T04:14:09.152Z,3.33
2018-08-09T04:16:37.409Z,3.30
2018-08-09T04:19:05.724Z,3.27
2018-08-09T04:21:34.008Z,3.67
2018-08-09T04:24:02.301Z,3.00
2018-08-09T04:26:31.150Z,3.50
2018-08-09T04:28:59.359Z,3.07
2018-08-09T04:31:27.564Z,3.53
2018-08-09T04:33:55.785Z,3.83
2018-08-09T04:36:24.024Z,2.80
2018-08-09T04:38:52.251Z,3.33
2018-08-09T04:41:20.492Z,2.93
2018-08-09T04:43:48.710Z,3.10
2018-08-09T04:46:16.967Z,2.47
2018-08-09T04:48:45.189Z,3.27
2018-08-09T04:51:13.412Z,3.10
2018-08-09T04:53:41.833Z,2.97
2018-08-09T04:56:10.040Z,2.73
2018-08-09T04:58:38.288Z,3.10
2018-08-09T05:01:06.572Z,3.40
2018-08-09T05:03:34.797Z,4.30
2018-08-09T05:06:03.089Z,3.20
2018-08-09T05:08:31.304Z,3.17
2018-08-09T05:10:59.527Z,2.80
2018-08-09T05:13:27.785Z,3.30
2018-08-09T05:15:56.088Z,2.90
2018-08-09T05:18:24.460Z,2.73
2018-08-09T05:20:52.752Z,2.90
2018-08-09T05:23:20.975Z,2.97
2018-08-09T05:25:49.208Z,3.00
2018-08-09T05:28:17.496Z,2.67
2018-08-09T05:30:45.712Z,3.57
2018-08-09T05:33:14.062Z,3.30
2018-08-09T05:35:42.276Z,4.13
2018-08-09T05:38:10.698Z,3.83
2018-08-09T05:40:38.924Z,3.80
2018-08-09T05:43:07.652Z,3.90
2018-08-09T05:45:36.160Z,3.90
2018-08-09T05:48:04.456Z,3.57
2018-08-09T05:50:32.903Z,3.40
2018-08-09T05:53:01.993Z,3.80
2018-08-09T05:55:30.145Z,3.60
2018-08-09T05:57:58.380Z,3.73
2018-08-09T06:00:26.636Z,3.50
2018-08-09T06:02:54.893Z,4.50
2018-08-09T06:05:23.120Z,3.57
2018-08-09T06:07:51.377Z,3.40
2018-08-09T06:10:19.644Z,3.90
2018-08-09T06:12:47.879Z,3.80
2018-08-09T06:15:16.141Z,3.97
2018-08-09T06:17:44.532Z,3.70
2018-08-09T06:20:12.821Z,3.67
2018-08-09T06:22:41.061Z,3.60
2018-08-09T06:25:09.288Z,3.70
2018-08-09T06:27:37.512Z,3.50
2018-08-09T06:30:08.095Z,3.53
2018-08-09T06:32:36.301Z,4.20
2018-08-09T06:35:06.405Z,4.30
2018-08-09T06:37:34.657Z,3.47
2018-08-09T06:40:02.902Z,4.07
2018-08-09T06:42:31.160Z,4.13
2018-08-09T06:44:59.508Z,3.70
2018-08-09T06:47:27.898Z,4.20
2018-08-09T06:49:56.092Z,3.50
2018-08-09T06:52:24.473Z,3.93
2018-08-09T06:54:52.692Z,4.17
2018-08-09T06:57:20.972Z,4.13
2018-08-09T06:59:49.189Z,3.77
2018-08-09T07:02:17.445Z,4.10
2018-08-09T07:04:45.689Z,3.17
2018-08-09T07:07:13.957Z,4.13
2018-08-09T07:09:42.201Z,3.60
2018-08-09T07:12:10.405Z,4.00
2018-08-09T07:14:38.625Z,4.10
2018-08-09T07:17:06.880Z,4.10
2018-08-09T07:19:35.193Z,4.10
2018-08-09T07:22:03.413Z,3.93
2018-08-09T07:24:31.736Z,3.93
2018-08-09T07:26:59.964Z,4.27
2018-08-09T07:29:28.183Z,3.80
2018-08-09T07:31:56.416Z,4.60
2018-08-09T07:34:24.640Z,4.13
2018-08-09T07:36:52.860Z,4.73
2018-08-09T07:39:21.393Z,4.30
2018-08-09T07:41:49.517Z,5.47
2018-08-09T07:44:17.836Z,4.10
2018-08-09T07:46:46.115Z,4.83
2018-08-09T07:49:14.336Z,4.90
2018-08-09T07:51:42.588Z,4.17
2018-08-09T07:54:10.840Z,4.90
2018-08-09T07:56:39.088Z,5.10
2018-08-09T07:59:07.336Z,4.63
2018-08-09T08:01:35.613Z,4.83
2018-08-09T08:04:03.850Z,4.90
2018-08-09T08:06:32.132Z,5.60
2018-08-09T08:09:00.445Z,5.27
2018-08-09T08:11:28.681Z,5.67
2018-08-09T08:13:56.881Z,5.83
2018-08-09T08:16:25.090Z,6.13
2018-08-09T08:18:53.413Z,5.70
2018-08-09T08:21:21.620Z,5.07
2018-08-09T08:23:49.861Z,5.80
2018-08-09T08:26:18.077Z,6.27
2018-08-09T08:28:46.292Z,6.27
2018-08-09T08:31:14.510Z,5.97
2018-08-09T08:33:42.836Z,5.50
2018-08-09T08:36:11.046Z,5.83
2018-08-09T08:38:39.332Z,6.83
2018-08-09T08:41:07.808Z,6.03
2018-08-09T08:43:36.180Z,6.27
2018-08-09T08:46:04.485Z,6.17
2018-08-09T08:48:32.868Z,6.57
2018-08-09T08:51:01.144Z,5.43
2018-08-09T08:53:29.441Z,5.80
2018-08-09T08:55:57.708Z,6.10
2018-08-09T08:58:27.596Z,6.67
2018-08-09T09:00:55.902Z,6.30
2018-08-09T09:03:24.097Z,6.30
2018-08-09T09:05:52.317Z,5.87
2018-08-09T09:08:20.569Z,6.93
2018-08-09T09:10:53.343Z,7.77
2018-08-09T09:13:21.856Z,6.77
2018-08-09T09:15:50.097Z,6.83
2018-08-09T09:18:18.326Z,6.00
2018-08-09T09:20:46.570Z,6.13
2018-08-09T09:23:14.829Z,6.53
2018-08-09T09:25:43.041Z,7.50
2018-08-09T09:28:11.384Z,7.07
2018-08-09T09:30:39.684Z,7.20
2018-08-09T09:33:08.411Z,7.27
2018-08-09T09:35:36.641Z,5.93
2018-08-09T09:38:05.296Z,6.60
2018-08-09T09:40:33.712Z,8.07
2018-08-09T09:43:01.908Z,7.40
2018-08-09T09:45:30.174Z,8.17
2018-08-09T09:47:58.364Z,7.23
2018-08-09T09:50:26.575Z,6.73
2018-08-09T09:52:54.838Z,6.77
2018-08-09T09:55:23.059Z,7.53
2018-08-09T09:57:51.286Z,6.70
2018-08-09T10:00:24.993Z,6.47
2018-08-09T10:02:53.200Z,9.47
2018-08-09T10:05:21.406Z,8.93
2018-08-09T10:07:49.616Z,7.27
2018-08-09T10:10:17.930Z,7.40
2018-08-09T10:12:46.201Z,7.60
2018-08-09T10:15:14.637Z,7.00
2018-08-09T10:17:42.976Z,6.67
2018-08-09T10:20:11.283Z,6.57
2018-08-09T10:22:39.488Z,6.77
2018-08-09T10:25:08.104Z,7.37
2018-08-09T10:27:36.313Z,6.73
2018-08-09T10:30:05.882Z,8.27
2018-08-09T10:32:34.164Z,7.10
2018-08-09T10:35:02.381Z,6.83
2018-08-09T10:37:30.600Z,6.63
2018-08-09T10:39:58.849Z,8.87
2018-08-09T10:42:27.140Z,6.90
2018-08-09T10:44:55.399Z,7.43
2018-08-09T10:47:23.612Z,6.77
2018-08-09T10:49:51.832Z,6.80
2018-08-09T10:52:20.069Z,7.00
2018-08-09T10:54:48.405Z,6.73
2018-08-09T10:57:16.664Z,7.40
2018-08-09T10:59:44.918Z,6.67
2018-08-09T11:02:13.151Z,6.37
2018-08-09T11:04:41.357Z,6.70
2018-08-09T11:07:09.630Z,7.23
2018-08-09T11:09:37.882Z,7.13
2018-08-09T11:12:12.756Z,6.80
2018-08-09T11:14:41.000Z,7.27
2018-08-09T11:17:09.237Z,7.03
2018-08-09T11:19:37.460Z,7.37
2018-08-09T11:22:05.704Z,6.63
2018-08-09T11:24:33.942Z,6.57
2018-08-09T11:27:02.134Z,6.57
2018-08-09T11:29:30.393Z,7.37
2018-08-09T11:31:58.752Z,7.80
2018-08-09T11:34:26.968Z,6.83
2018-08-09T11:36:55.164Z,6.80
2018-08-09T11:39:23.397Z,8.00
2018-08-09T11:41:51.764Z,7.50
2018-08-09T11:44:20.042Z,6.87
2018-08-09T11:46:48.251Z,6.47
2018-08-09T11:49:16.490Z,6.73
2018-08-09T11:51:44.764Z,6.30
2018-08-09T11:54:13.032Z,6.53
2018-08-09T11:56:41.287Z,6.87
2018-08-09T11:59:09.540Z,6.63
2018-08-09T12:01:37.781Z,6.67
2018-08-09T12:04:06.017Z,6.60
2018-08-09T12:06:34.244Z,6.63
2018-08-09T12:09:02.521Z,6.17
2018-08-09T12:11:30.792Z,6.00
2018-08-09T12:13:59.050Z,6.23
2018-08-09T12:16:27.264Z,5.90
2018-08-09T12:18:55.672Z,6.17
2018-08-09T12:21:23.901Z,6.00
2018-08-09T12:23:52.148Z,6.33
2018-08-09T12:26:20.457Z,6.33
2018-08-09T12:28:48.692Z,6.27
2018-08-09T12:31:16.939Z,6.27
2018-08-09T12:33:45.207Z,6.00
2018-08-09T12:36:13.452Z,6.47
2018-08-09T12:38:41.674Z,6.20
2018-08-09T12:41:09.909Z,6.30
2018-08-09T12:43:38.184Z,6.43
2018-08-09T12:46:06.603Z,6.50
2018-08-09T12:48:34.956Z,7.47
2018-08-09T12:51:03.211Z,6.80
2018-08-09T12:53:31.605Z,7.40
2018-08-09T12:55:59.912Z,7.03
2018-08-09T12:58:28.187Z,7.10
2018-08-09T13:00:56.449Z,6.53
2018-08-09T13:03:24.776Z,6.53
2018-08-09T13:05:53.144Z,7.30
2018-08-09T13:08:21.411Z,6.20
2018-08-09T13:10:49.808Z,5.70
2018-08-09T13:13:18.030Z,5.70
2018-08-09T13:15:46.320Z,5.90
2018-08-09T13:18:14.616Z,5.13
2018-08-09T13:20:42.924Z,4.80
2018-08-09T13:23:11.177Z,6.00
2018-08-09T13:25:39.421Z,7.33
2018-08-09T13:28:07.803Z,6.70
2018-08-09T13:30:36.018Z,5.67
2018-08-09T13:33:04.427Z,6.13
2018-08-09T13:35:32.698Z,5.60
2018-08-09T13:38:01.129Z,5.27
2018-08-09T13:40:29.285Z,5.90
2018-08-09T13:42:57.523Z,5.60
2018-08-09T13:45:25.872Z,5.37
2018-08-09T13:47:54.132Z,6.00
2018-08-09T13:50:22.424Z,6.20
2018-08-09T13:52:50.747Z,5.20
2018-08-09T13:55:18.972Z,5.20
2018-08-09T13:57:47.196Z,6.20
2018-08-09T14:00:15.429Z,5.30
2018-08-09T14:02:44.880Z,4.80
2018-08-09T14:05:13.220Z,4.67
2018-08-09T14:07:42.900Z,5.30
2018-08-09T14:10:11.853Z,5.60
2018-08-09T14:12:40.721Z,4.90
2018-08-09T14:15:10.046Z,4.47
2018-08-09T14:17:38.716Z,4.80
2018-08-09T14:20:08.620Z,4.80
2018-08-09T14:22:36.888Z,5.23
2018-08-09T14:25:05.889Z,4.57
2018-08-09T14:27:34.333Z,4.47
2018-08-09T14:30:02.613Z,4.10
2018-08-09T14:32:30.976Z,4.27
2018-08-09T14:34:59.232Z,4.30
2018-08-09T14:37:27.504Z,4.57
2018-08-09T14:39:55.752Z,4.40
2018-08-09T14:42:24.082Z,4.67
2018-08-09T14:44:52.288Z,4.27
2018-08-09T14:47:20.506Z,4.10
2018-08-09T14:49:48.841Z,4.57
2018-08-09T14:52:17.101Z,4.73
2018-08-09T14:54:45.351Z,4.20
2018-08-09T14:57:13.605Z,3.83
2018-08-09T14:59:41.909Z,4.40
2018-08-09T15:02:10.173Z,4.10
2018-08-09T15:04:38.407Z,4.77
2018-08-09T15:07:06.724Z,4.27
2018-08-09T15:09:34.960Z,4.03
2018-08-09T15:12:03.221Z,5.67
2018-08-09T15:14:31.520Z,4.80
2018-08-09T15:16:59.763Z,4.23
2018-08-09T15:19:28.005Z,4.20
2018-08-09T15:21:56.280Z,4.03
2018-08-09T15:24:24.538Z,4.17
2018-08-09T15:26:52.796Z,4.00
2018-08-09T15:29:21.037Z,4.33
2018-08-09T15:31:49.308Z,4.00
2018-08-09T15:34:17.526Z,4.10
2018-08-09T15:36:45.816Z,3.83
2018-08-09T15:39:14.610Z,4.37
2018-08-09T15:41:43.431Z,3.83
2018-08-09T15:44:12.710Z,4.17
2018-08-09T15:46:40.956Z,4.47
2018-08-09T15:49:09.333Z,4.60
2018-08-09T15:51:37.770Z,4.10
2018-08-09T15:54:06.039Z,4.50
2018-08-09T15:56:34.276Z,4.10
2018-08-09T15:59:02.533Z,4.80
2018-08-09T16:01:30.768Z,4.53
2018-08-09T16:03:59.197Z,4.43
2018-08-09T16:06:27.664Z,4.40
2018-08-09T16:08:56.453Z,4.83
2018-08-09T16:11:24.785Z,3.83
2018-08-09T16:13:53.149Z,4.00
2018-08-09T16:16:21.401Z,4.10
2018-08-09T16:18:49.577Z,3.63
2018-08-09T16:21:17.845Z,3.93
2018-08-09T16:23:46.124Z,3.67
2018-08-09T16:26:14.445Z,4.10
2018-08-09T16:28:42.720Z,4.93
2018-08-09T16:31:11.345Z,4.30
2018-08-09T16:33:39.593Z,5.20
2018-08-09T16:36:07.836Z,4.97
2018-08-09T16:38:36.053Z,4.30
2018-08-09T16:41:04.662Z,4.47
2018-08-09T16:43:32.904Z,4.73
2018-08-09T16:46:01.133Z,3.70
2018-08-09T16:48:29.393Z,3.80
2018-08-09T16:50:57.615Z,4.00
2018-08-09T16:53:25.829Z,3.37
2018-08-09T16:55:54.072Z,3.87
2018-08-09T16:58:22.344Z,4.03
2018-08-09T17:00:50.570Z,3.87
2018-08-09T17:03:18.912Z,3.83
2018-08-09T17:05:47.152Z,3.57
2018-08-09T17:08:15.437Z,3.43
2018-08-09T17:10:43.678Z,3.00
2018-08-09T17:13:11.895Z,3.40
2018-08-09T17:15:40.112Z,3.00
2018-08-09T17:18:08.377Z,2.53
2018-08-09T17:20:36.626Z,2.67
2018-08-09T17:23:05.514Z,2.97
2018-08-09T17:25:33.862Z,3.10
2018-08-09T17:28:02.012Z,2.90
2018-08-09T17:30:30.269Z,2.50
2018-08-09T17:32:58.716Z,2.97
2018-08-09T17:35:26.974Z,2.80
2018-08-09T17:37:55.288Z,2.63
2018-08-09T17:40:26.800Z,2.53
2018-08-09T17:42:55.886Z,1.80
2018-08-09T17:45:26.136Z,1.70
2018-08-09T17:47:54.386Z,1.40
2018-08-09T17:50:22.802Z,1.50
2018-08-09T17:52:51.217Z,1.67
2018-08-09T17:55:19.454Z,1.30
2018-08-09T17:57:47.987Z,1.63
2018-08-09T18:07:19.841Z,2.13
2018-08-09T18:09:48.056Z,1.53
2018-08-09T18:12:16.307Z,1.27
2018-08-09T18:14:45.928Z,1.40
2018-08-09T18:17:14.833Z,1.63
2018-08-09T18:19:43.069Z,1.63
2018-08-09T18:22:12.317Z,1.57
2018-08-09T18:24:40.578Z,1.70
2018-08-09T18:27:09.212Z,1.40
2018-08-09T18:29:37.507Z,1.63
2018-08-09T18:32:05.745Z,1.63
2018-08-09T18:34:34.039Z,1.07
2018-08-09T18:37:02.268Z,1.80
2018-08-09T18:39:31.147Z,1.90
2018-08-09T18:41:59.384Z,1.80
2018-08-09T18:44:27.689Z,1.80
2018-08-09T18:46:56.125Z,1.80
2018-08-09T18:49:24.420Z,1.80
2018-08-09T18:51:52.664Z,1.70
2018-08-09T18:54:20.963Z,2.30
2018-08-09T18:56:49.217Z,1.60
2018-08-09T18:59:17.567Z,2.17
2018-08-09T19:01:45.931Z,1.60
2018-08-09T19:04:14.124Z,1.70
2018-08-09T19:06:42.409Z,1.57
2018-08-09T19:09:11.534Z,1.40
2018-08-09T19:11:39.720Z,1.37
2018-08-09T19:14:08.002Z,1.60
2018-08-09T19:16:36.212Z,1.83
2018-08-09T19:19:04.500Z,1.63
2018-08-09T19:21:32.792Z,1.87
2018-08-09T19:24:01.010Z,1.60
2018-08-09T19:26:29.264Z,2.10
2018-08-09T19:28:57.516Z,1.80
2018-08-09T19:31:25.856Z,1.70
2018-08-09T19:33:54.151Z,1.67
2018-08-09T19:36:22.424Z,1.87
2018-08-09T19:38:50.692Z,1.90
2018-08-09T19:41:18.921Z,1.70
2018-08-09T19:43:47.156Z,1.70
2018-08-09T19:46:15.398Z,1.90
2018-08-09T19:48:43.613Z,1.97
2018-08-09T19:51:11.832Z,1.67
2018-08-09T19:53:40.127Z,1.63
2018-08-09T19:56:08.364Z,1.80
2018-08-09T19:58:36.868Z,1.53
2018-08-09T20:01:05.117Z,1.77
2018-08-09T20:03:33.406Z,1.47
2018-08-09T20:06:01.740Z,1.70
2018-08-09T20:08:29.889Z,1.73
2018-08-09T20:10:58.112Z,1.70
2018-08-09T20:13:26.533Z,1.80
2018-08-09T20:15:54.828Z,1.50
2018-08-09T20:18:23.065Z,1.80
2018-08-09T20:20:51.284Z,1.63
2018-08-09T20:23:19.569Z,1.83
2018-08-09T20:25:47.832Z,2.07
2018-08-09T20:28:16.040Z,1.80
2018-08-09T20:30:44.253Z,2.13
2018-08-09T20:33:12.465Z,1.70
2018-08-09T20:35:40.820Z,1.73
2018-08-09T20:38:09.070Z,2.00
2018-08-09T20:40:37.312Z,2.63
2018-08-09T20:43:05.556Z,2.50
2018-08-09T20:45:33.805Z,2.20
2018-08-09T20:48:02.095Z,2.10
2018-08-09T20:50:30.330Z,2.50
2018-08-09T20:52:58.548Z,2.30
2018-08-09T20:55:26.817Z,2.23
2018-08-09T20:57:55.856Z,2.30
2018-08-09T21:00:26.801Z,2.60
2018-08-09T21:02:56.319Z,2.03
2018-08-09T21:05:26.973Z,1.93
2018-08-09T21:07:55.960Z,2.10
2018-08-09T21:10:24.658Z,2.10
2018-08-09T21:12:52.916Z,1.20
2018-08-09T21:15:21.433Z,1.20
2018-08-09T21:17:49.656Z,1.27
2018-08-09T21:20:17.932Z,1.50
2018-08-09T21:22:47.333Z,1.00
2018-08-09T21:25:15.680Z,1.53
2018-08-09T21:27:44.448Z,1.03
2018-08-09T21:30:15.252Z,1.20
2018-08-09T21:32:43.788Z,0.80
2018-08-09T21:35:12.059Z,0.63
2018-08-09T21:37:41.176Z,1.17
2018-08-09T21:40:10.592Z,1.00
2018-08-09T21:42:38.808Z,0.70
2018-08-09T21:45:09.093Z,0.90
2018-08-09T21:47:37.513Z,0.90
2018-08-09T21:50:07.021Z,0.77
2018-08-09T21:52:35.288Z,0.67
2018-08-09T21:55:03.569Z,0.93
2018-08-09T21:57:31.840Z,0.80
2018-08-09T22:00:00.072Z,0.90
2018-08-09T22:02:28.289Z,1.10
2018-08-09T22:05:01.849Z,0.97
2018-08-09T22:07:35.349Z,0.63
2018-08-09T22:10:09.172Z,1.00
2018-08-09T22:12:42.888Z,1.17
2018-08-09T22:15:16.504Z,0.87
2018-08-09T22:17:50.116Z,1.00
2018-08-09T22:20:23.469Z,1.10
2018-08-09T22:22:51.684Z,1.03
2018-08-09T22:25:19.945Z,1.33
2018-08-09T22:27:48.383Z,1.00
2018-08-09T22:30:17.022Z,0.93
2018-08-09T22:32:45.208Z,1.07
2018-08-09T22:35:13.429Z,0.90
2018-08-09T22:37:41.656Z,1.03
2018-08-09T22:40:09.916Z,1.10
2018-08-09T22:42:38.157Z,1.10
2018-08-09T22:45:06.413Z,0.90
2018-08-09T22:47:34.624Z,0.90
2018-08-09T22:50:02.901Z,1.03
2018-08-09T22:52:31.105Z,1.10
2018-08-09T22:54:59.324Z,1.00
2018-08-09T22:57:27.644Z,1.10
2018-08-09T22:59:55.867Z,0.83
2018-08-09T23:02:24.072Z,1.13
2018-08-09T23:04:52.600Z,1.10
2018-08-09T23:07:20.853Z,0.90
2018-08-09T23:09:49.092Z,1.10
2018-08-09T23:12:17.334Z,1.10
2018-08-09T23:14:45.667Z,0.90
2018-08-09T23:17:14.033Z,1.07
2018-08-09T23:19:42.360Z,1.10
2018-08-09T23:22:10.681Z,0.93
2018-08-09T23:24:38.955Z,1.27
2018-08-09T23:27:07.198Z,1.40
2018-08-09T23:29:35.436Z,1.27
2018-08-09T23:32:03.665Z,1.30
2018-08-09T23:34:31.911Z,1.50
2018-08-09T23:37:00.136Z,1.00
2018-08-09T23:39:28.354Z,1.40
2018-08-09T23:41:56.589Z,1.20
2018-08-09T23:44:24.828Z,1.40
2018-08-09T23:46:53.025Z,1.73
2018-08-09T23:49:21.259Z,1.60
2018-08-09T23:51:49.490Z,1.80
2018-08-09T23:54:17.690Z,2.40
2018-08-09T23:56:45.954Z,2.33
2018-08-09T23:59:14.165Z,2.13
